Tuesday, June 19, 2018, 12:49 AM EDT
Back to Local

KFMH, Otis Air National Guard Base

Location: Mashpee, MA, United States Lat: 41.65
Local Time: 12:49 AM EDT ( 4:49 GMT) Lon: -70.517
Time Zone: US/Eastern Elev: 131 ft

Show me the last for .
Show Coded

Time T Td Feel RH Dir Speed Gust Alt SLP Vis Weather Sky Remarks
2018-06-19 00:15 66 66 - 100 230° 15 22 29.73 - 10 BKN006 BKN060 OVC110 None
2018-06-18 23:55 66 66 - 100 220° 15 23 29.74 - 10 FEW080 BKN090 OVC110 None
2018-06-18 23:35 66 66 - 100 220° 17 26 29.75 - 10 FEW030 SCT075 BKN095 None
2018-06-18 23:15 66 66 - 100 230° 17 26 29.77 - 6 -RA None
2018-06-18 22:55 66 66 - 100 230° 22 33 29.80 - 0 None
2018-06-18 22:35 66 66 - 100 250° 23 31 29.83 - 5 VCTS RA OVC004 None
2018-06-18 22:15 66 66 - 100 230° 17 28 29.82 - 8 -DZ OVC004 None
2018-06-18 21:55 66 66 - 100 230° 16 24 29.81 - 10 OVC005 None
2018-06-18 21:35 68 66 - 93 230° 16 29 29.82 - 10 BKN008 OVC012 None
2018-06-18 21:15 68 66 - 93 230° 15 29 29.81 - 10 SCT011 SCT034 BKN095 None
2018-06-18 20:55 68 66 - 93 230° 18 25 29.80 - 10 SCT009 SCT038 BKN046 None
2018-06-18 20:35 68 66 - 93 230° 18 26 29.79 - 10 SCT007 BKN100 None
2018-06-18 20:15 68 66 - 93 230° 20 28 29.82 - 10 SCT007 BKN100 None
2018-06-18 19:55 68 66 - 93 230° 18 29 29.83 - 9 SCT009 BKN100 None
2018-06-18 19:35 70 66 - 88 240° 18 28 29.84 - 10 FEW010 None
2018-06-18 19:15 70 66 - 88 230° 20 28 29.83 - 10 CLR None
2018-06-18 18:55 70 64 - 83 240° 16 23 29.84 - 10 BKN080 OVC120 None
2018-06-18 18:35 72 64 76 78 230° 20 28 29.83 - 10 CLR None
2018-06-18 18:15 73 64 77 73 230° 21 31 29.82 - 10 CLR None
2018-06-18 17:55 75 66 78 73 230° 21 33 29.83 - 10 CLR None
2018-06-18 17:35 73 64 77 73 230° 20 30 29.84 - 10 CLR None
2018-06-18 17:15 75 66 78 73 220° 22 32 29.84 - 10 CLR None
2018-06-18 16:55 73 66 77 78 230° 26 - 29.86 - 10 CLR None
2018-06-18 16:35 75 66 78 73 220° 24 33 29.87 - 10 CLR None
2018-06-18 16:15 77 66 80 69 230° 21 29 29.88 - 10 CLR None
2018-06-18 15:55 75 66 78 73 220° 21 29 29.88 - 10 CLR None
2018-06-18 15:35 75 66 78 73 230° 23 31 29.90 - 10 CLR None
2018-06-18 15:15 75 64 78 69 220° 23 29 29.90 - 10 CLR None
2018-06-18 14:55 75 66 78 73 220° 23 31 29.90 - 10 CLR None
2018-06-18 14:35 75 66 78 73 220° 24 30 29.92 - 10 CLR None
2018-06-18 14:15 75 66 78 73 220° 21 28 29.93 - 10 CLR None
2018-06-18 13:55 75 64 78 69 230° 20 28 29.94 - 10 CLR None
2018-06-18 13:35 77 66 80 69 230° 17 28 29.95 - 10 CLR None
2018-06-18 13:15 77 66 80 69 220° 22 29 29.95 - 10 CLR None
2018-06-18 12:55 77 66 80 69 230° 23 30 29.96 - 10 CLR None
2018-06-18 12:35 79 66 81 65 220° 22 32 29.97 - 10 CLR None
2018-06-18 12:15 79 66 81 65 230° 20 28 29.97 - 10 CLR None
2018-06-18 11:55 77 64 80 65 240° 18 25 29.97 - 10 CLR None
2018-06-18 11:35 75 64 78 69 240° 22 36 29.98 - 10 CLR None
2018-06-18 11:15 75 63 78 64 230° 22 31 29.99 - 10 CLR None
2018-06-18 10:55 75 63 78 64 230° 21 32 29.99 - 10 CLR None
2018-06-18 10:35 75 61 78 60 240° 24 33 29.99 - 10 CLR None
2018-06-18 10:15 75 63 78 64 240° 21 29 30.00 - 10 CLR None
2018-06-18 09:55 75 66 78 73 230° 18 30 30.00 - 10 CLR None
2018-06-18 09:35 75 66 78 73 210° 20 - 30.00 - 10 CLR None
2018-06-18 09:15 75 66 78 73 220° 17 24 30.01 - 10 CLR None
2018-06-18 08:55 73 66 77 78 230° 15 25 30.01 - 10 CLR None
2018-06-18 08:35 72 64 76 78 230° 18 28 30.01 - 10 CLR None
2018-06-18 08:15 72 66 76 83 220° 18 - 30.02 - 10 CLR None
2018-06-18 07:55 72 66 76 83 230° 17 23 30.02 - 10 CLR None
2018-06-18 07:35 70 64 - 83 230° 16 23 30.03 - 10 CLR None
2018-06-18 07:15 68 64 - 88 220° 16 - 30.03 - 10 CLR None
2018-06-18 06:55 68 64 - 88 230° 16 - 30.04 - 10 CLR None
2018-06-18 06:35 68 64 - 88 230° 13 18 30.05 - 10 CLR None
2018-06-18 06:15 66 64 - 93 230° 9 - 30.05 - 10 CLR None
2018-06-18 05:55 66 63 - 88 230° 9 - 30.05 - 10 CLR None
2018-06-18 05:35 64 63 - 93 230° 8 - 30.06 - 10 CLR None
2018-06-18 05:15 64 63 - 93 230° 8 - 30.06 - 10 CLR None
2018-06-18 04:55 64 63 - 93 230° 9 - 30.06 - 10 CLR None
2018-06-18 04:35 64 63 - 93 230° 8 - 30.05 - 10 CLR None
2018-06-18 04:15 64 63 - 93 240° 9 - 30.06 - 10 CLR None
2018-06-18 03:55 64 63 - 93 240° 8 - 30.06 - 10 CLR None
2018-06-18 03:35 64 63 - 93 240° 9 - 30.06 - 10 CLR None
2018-06-18 03:15 64 63 - 93 240° 9 - 30.07 - 10 CLR None
2018-06-18 02:55 64 63 - 93 240° 9 - 30.07 - 10 CLR None
2018-06-18 02:35 64 61 - 88 240° 9 - 30.07 - 10 CLR None
2018-06-18 02:15 63 61 - 93 240° 9 - 30.07 - 10 CLR None
2018-06-18 01:55 63 61 - 93 230° 8 - 30.07 - 10 CLR None
2018-06-18 01:35 63 61 - 93 220° 7 - 30.08 - 10 CLR None
2018-06-18 01:15 61 59 - 93 230° 7 - 30.08 - 10 CLR None
2018-06-18 00:55 61 59 - 93 210° 6 - 30.09 - 10 CLR None

Support USWX by starting your Amazon purchase here.